Aviation Digital Data Service (ADDS)

Output produced by METARs form (0939 UTC 26 November 2014)
found at http://aviationweather.gov/adds/metars/
 
KAVL 260540Z 2606/2706 VRB03KT P6SM -RA OVC050 
     FM260800 32006KT 4SM -RA OVC027 
     FM261000 32007KT 3SM -RASN BR OVC014 
     TEMPO 2610/2612 2SM RASN SCT007 OVC012 
     FM261600 31008KT P6SM OVC045 
     FM262300 32004KT P6SM BKN060